map of KBAZ home
KBAZ - Airport
Location
City:  New Braunfels, Texas, United States
Name:New Braunfels Regional
ICAO:KBAZ
FAA LID:BAZ

Details
Type:Airport (Airfield)
Use:Public/Civil
Latitude:2942'21"N (29.705750)
Longitude:9802'36"W (-98.043221)
Datum:WGS 1984
Elevation:658 ft (201 m)
Variation:3.88E (WMM2015v2 magnetic declination)
-0.10 annual change
Runways:2
Longest:6503 × 100 ft (1982 × 30.5 m), paved

Time
Time Zone:UTC-6 (DST-5)
Local Time:

Weather
METAR:KBAZ 041414Z 20004KT 1SM BR BKN003 OVC013 19/18 A2990 RMK AO2 T01890183

Related Locations
Nearby:
Farthest:RRG: 11091 mi / 17849 km
Plaine Corail [Sir Gatan Duval Airport (Plaine Corail Airport)], Rodrigues Island, MU

Find:

   beyond  
but within

Other Information
Maps:
NOTAMs:
Links:
Sources:

  
  • flag of United States
  • flag of Texas
  

Airport Diagram

Airport diagram for KBAZ

Airport diagram PDF from FAA

Sectional Chart

Flight Planning
at skyvector.com

Satellite Image

Google Maps Satellite view

 

Copyright © 2004-2019 Karl L. Swartz. All rights reserved.
The Great Circle Mapper name and logo are trademarks of the Great Circle Mapper.
All other trademarks mentioned herein belong to their respective owners.
Please see credits for attibutions and further copyright information.

  Follow gcmap on Facebook Follow gcmap on Twitter GCmap on LinkedIn

hCard Microformat

Geo Microformat